Maldives Meteorological Service

TAFS

Station TAF
VRMM
211100Z 2112/2218 24010KT 9999 FEW018 TEMPO 2115/2118 FEW018CB=
VRMH
211100Z 2112/2218 25013KT 9999 SCT017TCU TEMPO 2114/2120 4000 TSRA SCT015 FEW016CB=
VRMK
211100Z 2112/2212 22008KT 9999 FEW018 TEMPO 2115/2121 FEW019CB=
VRMT
211100Z 2112/2212 24009KT 9999 FEW018 TEMPO 2115/2121 FEW019CB=
VRMG
211100Z 2112/2218 20010KT 9999 FEW018 TEMPO 2112/2118 FEW018CB=